createdAt,value
2019-01-17T00:02:22.200Z,55.50
2019-01-17T00:05:10.528Z,55.40
2019-01-17T00:07:58.646Z,55.34
2019-01-17T00:10:46.775Z,55.32
2019-01-17T00:13:34.910Z,54.59
2019-01-17T00:16:23.145Z,54.83
2019-01-17T00:19:06.044Z,55.00
2019-01-17T00:21:54.172Z,55.17
2019-01-17T00:24:42.284Z,55.31
2019-01-17T00:27:30.418Z,54.99
2019-01-17T00:30:18.584Z,54.61
2019-01-17T00:32:57.453Z,54.90
2019-01-17T00:35:45.588Z,54.32
2019-01-17T00:38:33.739Z,54.22
2019-01-17T00:41:21.874Z,54.53
2019-01-17T00:44:09.989Z,54.15
2019-01-17T00:46:58.132Z,54.14
2019-01-17T00:49:39.516Z,53.70
2019-01-17T00:52:27.697Z,53.57
2019-01-17T00:55:16.203Z,53.49
2019-01-17T00:58:04.708Z,53.14
2019-01-17T01:00:53.097Z,53.06
2019-01-17T01:03:41.233Z,52.73
2019-01-17T01:06:29.352Z,52.94
2019-01-17T01:09:17.494Z,52.77
2019-01-17T01:12:02.607Z,52.65
2019-01-17T01:14:50.744Z,52.77
2019-01-17T01:17:38.877Z,52.82
2019-01-17T01:20:29.606Z,52.92
2019-01-17T01:23:17.747Z,52.96
2019-01-17T01:26:05.857Z,52.89
2019-01-17T01:28:54.035Z,53.16
2019-01-17T01:31:42.144Z,53.10
2019-01-17T01:34:30.283Z,52.93
2019-01-17T01:37:18.390Z,53.15
2019-01-17T01:40:06.535Z,53.15
2019-01-17T01:42:54.650Z,52.94
2019-01-17T01:45:42.774Z,52.51
2019-01-17T01:48:30.879Z,52.67
2019-01-17T01:51:19.011Z,52.64
2019-01-17T01:53:48.185Z,52.87
2019-01-17T01:56:17.734Z,53.14
2019-01-17T01:58:46.924Z,52.98
2019-01-17T02:01:16.106Z,53.20
2019-01-17T02:03:45.312Z,53.43
2019-01-17T02:06:14.494Z,53.73
2019-01-17T02:08:43.694Z,53.95
2019-01-17T02:11:12.876Z,54.07
2019-01-17T02:14:21.468Z,54.01
2019-01-17T02:16:50.642Z,53.98
2019-01-17T02:19:19.857Z,53.68
2019-01-17T02:21:49.038Z,53.67
2019-01-17T02:24:18.545Z,53.42
2019-01-17T02:26:48.045Z,53.25
2019-01-17T02:29:17.593Z,53.11
2019-01-17T02:31:46.793Z,53.31
2019-01-17T02:34:15.978Z,53.22
2019-01-17T02:36:45.203Z,53.56
2019-01-17T02:39:14.372Z,53.31
2019-01-17T02:41:43.549Z,53.30
2019-01-17T02:44:12.745Z,53.34
2019-01-17T02:46:41.928Z,53.06
2019-01-17T02:49:11.136Z,53.29
2019-01-17T02:51:40.316Z,53.18
2019-01-17T02:54:09.526Z,53.05
2019-01-17T02:56:38.706Z,53.04
2019-01-17T02:59:07.916Z,53.10
2019-01-17T03:01:37.097Z,53.26
2019-01-17T03:04:06.649Z,53.10
2019-01-17T03:06:35.853Z,53.24
2019-01-17T03:09:44.636Z,53.14
2019-01-17T03:12:13.818Z,52.88
2019-01-17T03:14:43.374Z,53.09
2019-01-17T03:17:12.551Z,53.35
2019-01-17T03:19:41.725Z,53.50
2019-01-17T03:22:11.247Z,53.34
2019-01-17T03:24:43.057Z,53.81
2019-01-17T03:27:11.407Z,53.88
2019-01-17T03:29:40.615Z,54.51
2019-01-17T03:32:09.851Z,54.55
2019-01-17T03:34:39.065Z,55.18
2019-01-17T03:37:08.290Z,55.74
2019-01-17T03:39:37.470Z,56.15
2019-01-17T03:42:06.658Z,56.39
2019-01-17T03:44:35.868Z,56.51
2019-01-17T03:47:05.387Z,56.60
2019-01-17T03:49:34.881Z,56.84
2019-01-17T03:52:04.058Z,57.02
2019-01-17T03:54:33.255Z,57.13
2019-01-17T03:57:02.436Z,57.36
2019-01-17T03:59:31.768Z,57.64
2019-01-17T04:02:00.954Z,57.69
2019-01-17T04:04:37.451Z,58.04
2019-01-17T04:07:06.640Z,58.38
2019-01-17T04:09:35.819Z,58.57
2019-01-17T04:12:05.144Z,58.59
2019-01-17T04:14:34.330Z,58.76
2019-01-17T04:17:03.543Z,58.90
2019-01-17T04:19:32.730Z,59.13
2019-01-17T04:22:01.948Z,59.30
2019-01-17T04:24:31.133Z,59.18
2019-01-17T04:27:00.346Z,59.45
2019-01-17T04:29:29.531Z,59.55
2019-01-17T04:31:59.122Z,59.33
2019-01-17T04:34:28.305Z,59.76
2019-01-17T04:36:57.516Z,59.66
2019-01-17T04:39:26.696Z,59.96
2019-01-17T04:41:55.899Z,60.12
2019-01-17T04:44:25.101Z,59.72
2019-01-17T04:46:54.580Z,60.00
2019-01-17T04:49:23.760Z,60.02
2019-01-17T04:51:52.966Z,60.17
2019-01-17T04:54:22.138Z,60.24
2019-01-17T04:56:51.340Z,60.54
2019-01-17T04:59:20.590Z,60.44
2019-01-17T05:01:49.808Z,60.30
2019-01-17T05:04:18.984Z,60.33
2019-01-17T05:06:48.199Z,60.28
2019-01-17T05:09:17.379Z,60.37
2019-01-17T05:11:46.901Z,60.51
2019-01-17T05:14:16.816Z,60.17
2019-01-17T05:16:46.022Z,60.63
2019-01-17T05:19:15.516Z,60.19
2019-01-17T05:21:44.722Z,60.43
2019-01-17T05:24:13.904Z,60.63
2019-01-17T05:26:43.103Z,60.38
2019-01-17T05:29:12.281Z,60.45
2019-01-17T05:31:41.517Z,60.40
2019-01-17T05:34:10.710Z,60.18
2019-01-17T05:36:40.049Z,60.11
2019-01-17T05:39:09.292Z,60.07
2019-01-17T05:41:38.501Z,59.40
2019-01-17T05:44:07.692Z,59.25
2019-01-17T05:46:36.899Z,59.77
2019-01-17T05:49:06.096Z,59.78
2019-01-17T05:51:35.294Z,60.01
2019-01-17T05:54:04.502Z,59.91
2019-01-17T05:56:34.052Z,59.76
2019-01-17T05:59:03.274Z,59.54
2019-01-17T06:01:32.482Z,59.56
2019-01-17T06:04:01.700Z,59.53
2019-01-17T06:06:33.151Z,59.51
2019-01-17T06:16:55.838Z,59.63
2019-01-17T06:19:25.024Z,59.57
2019-01-17T06:21:54.209Z,59.63
2019-01-17T06:24:23.739Z,59.45
2019-01-17T06:26:52.937Z,59.60
2019-01-17T06:29:22.139Z,59.74
2019-01-17T06:31:51.354Z,59.60
2019-01-17T06:34:20.573Z,59.34
2019-01-17T06:36:49.776Z,59.34
2019-01-17T06:39:18.991Z,59.75
2019-01-17T06:41:48.215Z,60.21
2019-01-17T06:44:20.421Z,60.19
2019-01-17T06:46:48.365Z,59.95
2019-01-17T06:49:17.587Z,60.16
2019-01-17T06:51:46.804Z,59.97
2019-01-17T06:54:16.022Z,59.63
2019-01-17T06:56:45.203Z,59.78
2019-01-17T06:59:14.465Z,59.61
2019-01-17T07:01:43.603Z,59.82
2019-01-17T07:04:13.124Z,59.28
2019-01-17T07:06:42.319Z,59.44
2019-01-17T07:09:11.524Z,59.49
2019-01-17T07:11:41.077Z,59.56
2019-01-17T07:14:10.549Z,59.78
2019-01-17T07:16:39.741Z,59.94
2019-01-17T07:19:09.025Z,59.89
2019-01-17T07:21:38.203Z,59.97
2019-01-17T07:24:07.414Z,60.04
2019-01-17T07:26:36.591Z,59.86
2019-01-17T07:29:05.865Z,59.67
2019-01-17T07:31:35.200Z,59.88
2019-01-17T07:34:04.754Z,59.71
2019-01-17T07:36:33.975Z,59.36
2019-01-17T07:41:52.998Z,58.99
2019-01-17T07:44:22.166Z,59.36
2019-01-17T07:46:51.494Z,62.29
2019-01-17T07:49:21.027Z,61.98
2019-01-17T07:51:50.335Z,58.94
2019-01-17T07:54:19.507Z,57.18
2019-01-17T07:56:49.034Z,56.52
2019-01-17T07:59:18.217Z,57.13
2019-01-17T08:01:47.399Z,55.56
2019-01-17T08:04:16.598Z,53.57
2019-01-17T08:06:45.772Z,54.04
2019-01-17T08:09:14.970Z,54.44
2019-01-17T08:11:44.148Z,54.73
2019-01-17T08:14:13.365Z,54.87
2019-01-17T08:16:42.546Z,54.87
2019-01-17T08:19:12.046Z,54.72
2019-01-17T08:21:41.242Z,54.64
2019-01-17T08:24:10.724Z,54.44
2019-01-17T08:26:39.928Z,54.14
2019-01-17T08:29:09.481Z,53.69
2019-01-17T08:31:38.724Z,53.34
2019-01-17T08:34:07.898Z,53.21
2019-01-17T08:36:37.093Z,53.19
2019-01-17T08:39:09.004Z,53.27
2019-01-17T08:41:38.177Z,53.28
2019-01-17T08:44:07.713Z,53.21
2019-01-17T08:46:36.889Z,53.23
2019-01-17T08:49:06.094Z,53.03
2019-01-17T08:51:35.270Z,53.07
2019-01-17T08:56:59.370Z,52.55
2019-01-17T08:59:28.573Z,52.14
2019-01-17T09:01:58.073Z,51.36
2019-01-17T09:04:27.284Z,50.98
2019-01-17T09:06:56.467Z,50.22
2019-01-17T09:09:25.682Z,49.44
2019-01-17T09:11:55.174Z,48.95
2019-01-17T09:14:24.376Z,48.42
2019-01-17T09:16:53.578Z,47.79
2019-01-17T09:19:22.778Z,47.50
2019-01-17T09:21:52.310Z,47.42
2019-01-17T09:24:21.514Z,47.15
2019-01-17T09:26:50.687Z,46.80
2019-01-17T09:29:19.901Z,47.05
2019-01-17T09:31:49.095Z,46.54
2019-01-17T09:34:18.628Z,46.58
2019-01-17T09:36:47.831Z,46.83
2019-01-17T09:39:17.369Z,46.87
2019-01-17T09:41:46.570Z,46.66
2019-01-17T09:44:15.757Z,46.38
2019-01-17T09:46:44.953Z,46.22
2019-01-17T09:49:14.126Z,46.44
2019-01-17T09:51:43.350Z,46.30
2019-01-17T09:54:12.526Z,46.61
2019-01-17T09:56:41.731Z,46.46
2019-01-17T09:59:11.416Z,45.71
2019-01-17T10:01:41.833Z,45.59
2019-01-17T10:04:11.007Z,45.57
2019-01-17T10:06:40.205Z,45.38
2019-01-17T10:09:09.385Z,45.09
2019-01-17T10:11:38.582Z,44.99
2019-01-17T10:14:07.760Z,45.08
2019-01-17T10:17:02.471Z,45.05
2019-01-17T10:20:09.843Z,44.95
2019-01-17T10:23:02.308Z,44.86
2019-01-17T10:26:09.593Z,45.54
2019-01-17T10:29:16.868Z,45.56
2019-01-17T10:32:24.176Z,45.77
2019-01-17T10:35:31.450Z,46.01
2019-01-17T10:38:38.701Z,45.84
2019-01-17T10:41:46.006Z,46.29
2019-01-17T10:44:53.281Z,45.75
2019-01-17T10:48:00.585Z,45.31
2019-01-17T10:51:07.805Z,45.12
2019-01-17T10:54:15.052Z,45.25
2019-01-17T10:57:22.326Z,45.02
2019-01-17T11:00:29.595Z,45.15
2019-01-17T11:03:24.854Z,45.28
2019-01-17T11:06:32.125Z,45.32
2019-01-17T11:09:39.417Z,45.66
2019-01-17T11:12:46.684Z,45.37
2019-01-17T11:15:39.728Z,44.68
2019-01-17T11:18:31.480Z,44.77
2019-01-17T11:21:38.757Z,44.80
2019-01-17T11:24:34.047Z,45.32
2019-01-17T11:27:41.638Z,45.89
2019-01-17T11:30:48.910Z,46.48
2019-01-17T11:33:40.485Z,47.04
2019-01-17T11:36:47.734Z,47.54
2019-01-17T11:39:55.042Z,48.02
2019-01-17T11:43:02.289Z,48.17
2019-01-17T11:45:40.398Z,48.12
2019-01-17T11:48:47.670Z,48.27
2019-01-17T11:51:43.301Z,48.63
2019-01-17T11:54:50.545Z,48.93
2019-01-17T11:57:57.890Z,49.41
2019-01-17T12:00:52.888Z,49.96
2019-01-17T12:03:29.422Z,50.55
2019-01-17T12:05:58.607Z,50.86
2019-01-17T12:08:27.808Z,51.23
2019-01-17T12:10:57.012Z,51.13
2019-01-17T12:13:26.209Z,51.57
2019-01-17T12:15:55.396Z,51.69
2019-01-17T12:18:24.601Z,52.59
2019-01-17T12:20:53.780Z,53.23
2019-01-17T12:23:23.290Z,53.74
2019-01-17T12:25:52.473Z,53.79
2019-01-17T12:28:22.074Z,53.92
2019-01-17T12:30:51.637Z,54.21
2019-01-17T12:33:20.875Z,54.59
2019-01-17T12:35:50.064Z,54.48
2019-01-17T12:38:19.598Z,54.78
2019-01-17T12:40:48.806Z,54.94
2019-01-17T12:43:17.991Z,55.22
2019-01-17T12:45:47.161Z,55.56
2019-01-17T12:48:16.379Z,55.70
2019-01-17T12:50:45.554Z,56.00
2019-01-17T12:53:14.851Z,56.09
2019-01-17T12:55:44.052Z,56.10
2019-01-17T12:58:13.227Z,56.41
2019-01-17T13:00:42.431Z,56.78
2019-01-17T13:03:11.600Z,57.03
2019-01-17T13:05:40.839Z,56.93
2019-01-17T13:08:10.058Z,57.36
2019-01-17T13:10:39.232Z,57.60
2019-01-17T13:13:08.434Z,57.53
2019-01-17T13:15:37.624Z,57.50
2019-01-17T13:18:06.829Z,58.01
2019-01-17T13:20:36.111Z,58.36
2019-01-17T13:23:05.320Z,58.46
2019-01-17T13:25:34.861Z,58.79
2019-01-17T13:28:04.075Z,58.54
2019-01-17T13:33:23.114Z,58.69
2019-01-17T13:35:52.296Z,58.88
2019-01-17T13:38:21.842Z,58.83
2019-01-17T13:40:51.042Z,59.42
2019-01-17T13:43:20.213Z,59.36
2019-01-17T13:45:49.412Z,59.58
2019-01-17T13:48:18.942Z,59.85
2019-01-17T13:50:48.130Z,59.77
2019-01-17T13:53:17.642Z,59.88
2019-01-17T13:55:46.864Z,59.81
2019-01-17T13:58:16.045Z,60.32
2019-01-17T14:00:45.242Z,60.29
2019-01-17T14:03:14.738Z,60.34
2019-01-17T14:05:43.948Z,60.33
2019-01-17T14:08:13.123Z,60.32
2019-01-17T14:10:42.312Z,60.25
2019-01-17T14:13:11.507Z,60.14
2019-01-17T14:15:40.728Z,60.12
2019-01-17T14:18:09.903Z,60.23
2019-01-17T14:20:39.099Z,59.85
2019-01-17T14:23:08.624Z,59.58
2019-01-17T14:25:37.812Z,58.99
2019-01-17T14:28:07.016Z,58.77
2019-01-17T14:30:36.328Z,58.73
2019-01-17T14:33:05.614Z,58.45
2019-01-17T14:35:35.129Z,58.01
2019-01-17T14:38:04.383Z,57.85
2019-01-17T14:40:33.651Z,57.81
2019-01-17T14:43:02.826Z,57.58
2019-01-17T14:45:32.043Z,57.86
2019-01-17T14:48:01.219Z,58.00
2019-01-17T14:53:27.360Z,58.60
2019-01-17T14:55:56.937Z,58.64
2019-01-17T14:58:26.522Z,58.81
2019-01-17T15:00:56.237Z,58.74
2019-01-17T15:03:25.429Z,58.87
2019-01-17T15:05:54.884Z,59.17
2019-01-17T15:08:24.467Z,59.20
2019-01-17T15:10:53.634Z,59.13
2019-01-17T15:13:22.844Z,59.03
2019-01-17T15:15:52.017Z,58.89
2019-01-17T15:18:21.182Z,58.79
2019-01-17T15:20:50.383Z,58.48
2019-01-17T15:23:19.582Z,58.33
2019-01-17T15:25:49.279Z,57.99
2019-01-17T15:28:18.465Z,58.07
2019-01-17T15:30:47.817Z,57.91
2019-01-17T15:33:17.026Z,57.68
2019-01-17T15:35:46.213Z,57.43
2019-01-17T15:38:15.458Z,57.29
2019-01-17T15:40:44.592Z,57.50
2019-01-17T15:43:13.912Z,57.66
2019-01-17T15:45:43.995Z,57.94
2019-01-17T15:48:13.194Z,58.06
2019-01-17T15:50:42.402Z,58.10
2019-01-17T15:53:11.584Z,58.42
2019-01-17T15:55:40.796Z,58.69
2019-01-17T15:58:10.033Z,59.66
2019-01-17T16:00:39.233Z,59.76
2019-01-17T16:03:08.494Z,59.74
2019-01-17T16:05:37.992Z,59.95
2019-01-17T16:08:07.170Z,60.39
2019-01-17T16:10:36.365Z,60.54
2019-01-17T16:13:05.555Z,60.51
2019-01-17T16:18:09.726Z,60.08
2019-01-17T16:20:39.245Z,59.96
2019-01-17T16:23:08.426Z,60.10
2019-01-17T16:25:37.636Z,60.26
2019-01-17T16:28:06.836Z,60.29
2019-01-17T16:30:36.049Z,60.44
2019-01-17T16:33:05.351Z,60.32
2019-01-17T16:35:35.023Z,60.21
2019-01-17T16:38:04.618Z,60.20
2019-01-17T16:40:34.145Z,60.35
2019-01-17T16:43:03.584Z,60.51
2019-01-17T16:45:35.510Z,59.82
2019-01-17T16:48:04.487Z,59.77
2019-01-17T16:53:23.571Z,59.86
2019-01-17T16:55:52.775Z,59.74
2019-01-17T16:58:22.262Z,59.99
2019-01-17T17:00:51.440Z,60.30
2019-01-17T17:03:20.698Z,60.28
2019-01-17T17:05:49.882Z,60.11
2019-01-17T17:08:19.182Z,60.37
2019-01-17T17:10:48.662Z,60.34
2019-01-17T17:13:17.859Z,60.70
2019-01-17T17:15:47.041Z,60.78
2019-01-17T17:18:16.237Z,60.83
2019-01-17T17:20:45.420Z,60.86
2019-01-17T17:23:14.596Z,60.88
2019-01-17T17:25:43.802Z,61.47
2019-01-17T17:28:13.009Z,61.82
2019-01-17T17:30:42.217Z,61.74
2019-01-17T17:33:11.420Z,62.10
2019-01-17T17:35:40.615Z,62.37
2019-01-17T17:38:09.801Z,62.54
2019-01-17T17:40:38.998Z,62.50
2019-01-17T17:43:08.178Z,62.88
2019-01-17T17:48:32.157Z,62.70
2019-01-17T17:51:01.347Z,62.36
2019-01-17T17:53:30.825Z,62.57
2019-01-17T17:56:00.187Z,62.54
2019-01-17T17:58:29.587Z,62.80
2019-01-17T18:01:02.423Z,62.23
2019-01-17T18:03:31.602Z,62.42
2019-01-17T18:06:00.805Z,62.56
2019-01-17T18:08:30.309Z,62.78
2019-01-17T18:10:59.510Z,62.48
2019-01-17T18:13:28.681Z,62.53
2019-01-17T18:15:57.882Z,62.29
2019-01-17T18:18:27.407Z,62.40
2019-01-17T18:20:56.614Z,62.42
2019-01-17T18:23:26.110Z,62.49
2019-01-17T18:25:55.455Z,62.47
2019-01-17T18:28:24.655Z,62.42
2019-01-17T18:30:53.872Z,62.44
2019-01-17T18:33:23.447Z,62.60
2019-01-17T18:38:42.798Z,62.58
2019-01-17T18:41:11.979Z,62.71
2019-01-17T18:43:41.179Z,62.53
2019-01-17T18:46:13.362Z,62.53
2019-01-17T18:48:42.683Z,62.62
2019-01-17T18:51:11.973Z,62.66
2019-01-17T18:53:41.187Z,62.59
2019-01-17T18:56:10.379Z,63.02
2019-01-17T18:58:39.639Z,63.48
2019-01-17T19:01:08.834Z,63.18
2019-01-17T19:03:38.063Z,63.47
2019-01-17T19:06:07.352Z,63.29
2019-01-17T19:08:36.936Z,63.21
2019-01-17T19:11:06.488Z,62.94
2019-01-17T19:13:36.095Z,63.33
2019-01-17T19:16:06.615Z,63.24
2019-01-17T19:18:35.832Z,63.50
2019-01-17T19:21:05.019Z,63.22
2019-01-17T19:23:34.287Z,62.98
2019-01-17T19:26:03.868Z,63.34
2019-01-17T19:28:33.511Z,63.35
2019-01-17T19:31:02.695Z,63.15
2019-01-17T19:33:32.293Z,63.55
2019-01-17T19:36:01.819Z,63.58
2019-01-17T19:38:31.055Z,63.83
2019-01-17T19:41:00.263Z,63.87
2019-01-17T19:43:29.823Z,63.37
2019-01-17T19:45:59.146Z,63.71
2019-01-17T19:48:28.678Z,63.69
2019-01-17T19:50:57.879Z,63.65
2019-01-17T19:53:27.105Z,63.29
2019-01-17T19:55:56.664Z,63.57
2019-01-17T19:58:29.110Z,63.21
2019-01-17T20:00:56.764Z,62.97
2019-01-17T20:03:25.940Z,62.89
2019-01-17T20:05:55.465Z,62.60
2019-01-17T20:08:24.638Z,62.23
2019-01-17T20:10:53.841Z,62.23
2019-01-17T20:13:23.022Z,61.69
2019-01-17T20:15:52.224Z,61.45
2019-01-17T20:18:21.576Z,61.53
2019-01-17T20:20:50.794Z,61.29
2019-01-17T20:23:20.361Z,60.92
2019-01-17T20:25:49.868Z,61.02
2019-01-17T20:28:19.370Z,60.71
2019-01-17T20:30:48.570Z,60.53
2019-01-17T20:33:17.776Z,60.79
2019-01-17T20:35:47.029Z,59.93
2019-01-17T20:38:16.497Z,59.90
2019-01-17T20:40:45.693Z,59.44
2019-01-17T20:43:14.909Z,59.79
2019-01-17T20:45:44.107Z,59.45
2019-01-17T20:48:13.556Z,59.60
2019-01-17T20:50:42.752Z,59.69
2019-01-17T20:53:11.923Z,59.58
2019-01-17T20:55:41.245Z,59.64
2019-01-17T20:58:10.459Z,59.78
2019-01-17T21:00:47.767Z,59.76
2019-01-17T21:03:18.889Z,59.99
2019-01-17T21:05:48.096Z,59.74
2019-01-17T21:08:17.383Z,59.97
2019-01-17T21:10:46.595Z,59.52
2019-01-17T21:13:15.919Z,59.19
2019-01-17T21:15:45.321Z,59.49
2019-01-17T21:18:14.872Z,59.26
2019-01-17T21:20:44.146Z,58.99
2019-01-17T21:23:13.848Z,58.62
2019-01-17T21:25:43.597Z,58.74
2019-01-17T21:28:12.891Z,58.87
2019-01-17T21:30:42.123Z,58.87
2019-01-17T21:33:11.303Z,58.95
2019-01-17T21:35:59.706Z,59.06
2019-01-17T21:38:28.961Z,59.01
2019-01-17T21:40:58.270Z,58.95
2019-01-17T21:43:27.863Z,59.21
2019-01-17T21:45:57.062Z,59.52
2019-01-17T21:48:26.771Z,59.62
2019-01-17T21:50:56.378Z,59.62
2019-01-17T21:53:25.570Z,59.61
2019-01-17T21:55:54.770Z,59.87
2019-01-17T21:58:24.070Z,60.18
2019-01-17T22:00:53.232Z,60.36
2019-01-17T22:03:22.777Z,60.83
2019-01-17T22:05:51.999Z,61.13
2019-01-17T22:08:21.178Z,61.25
2019-01-17T22:10:50.777Z,61.61
2019-01-17T22:13:20.362Z,62.08
2019-01-17T22:15:49.555Z,62.70
2019-01-17T22:18:18.735Z,63.35
2019-01-17T22:20:47.929Z,62.74
2019-01-17T22:23:17.267Z,62.96
2019-01-17T22:25:46.578Z,63.48
2019-01-17T22:28:15.810Z,63.19
2019-01-17T22:30:44.986Z,62.70
2019-01-17T22:33:14.474Z,62.94
2019-01-17T22:35:43.787Z,63.48
2019-01-17T22:38:12.985Z,64.13
2019-01-17T22:40:42.165Z,64.35
2019-01-17T22:43:11.673Z,63.90
2019-01-17T22:45:40.856Z,63.70
2019-01-17T22:48:10.068Z,63.65
2019-01-17T22:50:39.375Z,63.25
2019-01-17T22:53:09.185Z,63.33
2019-01-17T22:55:38.385Z,63.35
2019-01-17T22:58:07.591Z,63.63
2019-01-17T23:01:18.530Z,63.89
2019-01-17T23:03:49.393Z,63.83
2019-01-17T23:06:18.567Z,63.75
2019-01-17T23:08:47.767Z,63.63
2019-01-17T23:11:16.942Z,63.86
2019-01-17T23:13:46.157Z,64.14
2019-01-17T23:16:15.343Z,64.39
2019-01-17T23:18:44.544Z,64.50
2019-01-17T23:21:14.087Z,64.59
2019-01-17T23:23:43.289Z,64.58
2019-01-17T23:26:12.463Z,64.56
2019-01-17T23:28:41.793Z,64.93
2019-01-17T23:31:10.996Z,64.97
2019-01-17T23:33:40.181Z,65.05
2019-01-17T23:36:09.677Z,64.93
2019-01-17T23:38:39.287Z,65.26
2019-01-17T23:41:08.496Z,65.46
2019-01-17T23:43:37.691Z,65.90
2019-01-17T23:46:06.897Z,65.81
2019-01-17T23:48:36.081Z,65.66
2019-01-17T23:51:05.396Z,65.42
2019-01-17T23:53:34.581Z,65.54
2019-01-17T23:56:03.788Z,64.83
2019-01-17T23:58:32.963Z,64.75
